sensor_id;sensor_type;location;lat;lon;timestamp;temperature;humidity
480;DHT22;226;48.606;9.096;2022-08-19T00:01:54;21.10;29.20
480;DHT22;226;48.606;9.096;2022-08-19T00:04:24;21.10;29.40
480;DHT22;226;48.606;9.096;2022-08-19T00:06:52;21.00;29.80
480;DHT22;226;48.606;9.096;2022-08-19T00:09:22;21.00;30.10
480;DHT22;226;48.606;9.096;2022-08-19T00:11:51;21.00;31.50
480;DHT22;226;48.606;9.096;2022-08-19T00:14:19;21.10;35.40
480;DHT22;226;48.606;9.096;2022-08-19T00:16:50;21.00;34.30
480;DHT22;226;48.606;9.096;2022-08-19T00:19:22;20.90;32.60
480;DHT22;226;48.606;9.096;2022-08-19T00:21:50;20.90;33.40
480;DHT22;226;48.606;9.096;2022-08-19T00:24:18;20.80;35.60
480;DHT22;226;48.606;9.096;2022-08-19T00:26:46;20.80;36.00
480;DHT22;226;48.606;9.096;2022-08-19T00:29:17;20.80;35.40
480;DHT22;226;48.606;9.096;2022-08-19T00:31:46;20.80;40.60
480;DHT22;226;48.606;9.096;2022-08-19T00:34:18;20.80;38.20
480;DHT22;226;48.606;9.096;2022-08-19T00:36:46;20.70;39.60
480;DHT22;226;48.606;9.096;2022-08-19T00:39:15;20.70;40.20
480;DHT22;226;48.606;9.096;2022-08-19T00:41:44;20.60;40.60
480;DHT22;226;48.606;9.096;2022-08-19T00:44:15;20.50;42.50
480;DHT22;226;48.606;9.096;2022-08-19T00:46:50;20.50;41.50
480;DHT22;226;48.606;9.096;2022-08-19T00:49:29;20.40;45.70
480;DHT22;226;48.606;9.096;2022-08-19T00:52:04;20.40;42.70
480;DHT22;226;48.606;9.096;2022-08-19T00:54:35;20.40;42.70
480;DHT22;226;48.606;9.096;2022-08-19T00:57:07;20.40;42.50
480;DHT22;226;48.606;9.096;2022-08-19T00:59:38;20.30;42.90
480;DHT22;226;48.606;9.096;2022-08-19T01:02:28;20.20;43.70
480;DHT22;226;48.606;9.096;2022-08-19T01:04:59;20.20;45.30
480;DHT22;226;48.606;9.096;2022-08-19T01:07:28;20.20;46.40
480;DHT22;226;48.606;9.096;2022-08-19T01:10:05;20.30;48.20
480;DHT22;226;48.606;9.096;2022-08-19T01:12:34;20.30;49.90
480;DHT22;226;48.606;9.096;2022-08-19T01:15:04;20.30;52.90
480;DHT22;226;48.606;9.096;2022-08-19T01:17:33;20.30;52.90
480;DHT22;226;48.606;9.096;2022-08-19T01:20:04;20.30;52.50
480;DHT22;226;48.606;9.096;2022-08-19T01:22:41;20.30;53.30
480;DHT22;226;48.606;9.096;2022-08-19T01:25:11;20.30;53.70
480;DHT22;226;48.606;9.096;2022-08-19T01:27:42;20.30;54.10
480;DHT22;226;48.606;9.096;2022-08-19T01:30:13;20.30;52.10
480;DHT22;226;48.606;9.096;2022-08-19T01:32:41;20.20;54.00
480;DHT22;226;48.606;9.096;2022-08-19T01:35:11;20.10;54.20
480;DHT22;226;48.606;9.096;2022-08-19T01:37:46;20.20;56.00
480;DHT22;226;48.606;9.096;2022-08-19T01:40:15;20.10;55.60
480;DHT22;226;48.606;9.096;2022-08-19T01:42:43;20.00;57.10
480;DHT22;226;48.606;9.096;2022-08-19T01:45:12;20.00;58.80
480;DHT22;226;48.606;9.096;2022-08-19T01:47:40;19.90;58.20
480;DHT22;226;48.606;9.096;2022-08-19T01:50:17;20.20;73.20
480;DHT22;226;48.606;9.096;2022-08-19T01:52:49;19.70;61.30
480;DHT22;226;48.606;9.096;2022-08-19T01:55:33;19.60;80.70
480;DHT22;226;48.606;9.096;2022-08-19T01:58:08;19.60;64.30
480;DHT22;226;48.606;9.096;2022-08-19T02:00:39;19.60;64.30
480;DHT22;226;48.606;9.096;2022-08-19T02:03:07;19.60;64.10
480;DHT22;226;48.606;9.096;2022-08-19T02:05:36;19.60;75.50
480;DHT22;226;48.606;9.096;2022-08-19T02:08:05;19.50;63.30
480;DHT22;226;48.606;9.096;2022-08-19T02:10:37;19.40;65.00
480;DHT22;226;48.606;9.096;2022-08-19T02:13:05;19.20;66.40
480;DHT22;226;48.606;9.096;2022-08-19T02:15:33;19.10;68.00
480;DHT22;226;48.606;9.096;2022-08-19T02:18:03;19.10;70.90
480;DHT22;226;48.606;9.096;2022-08-19T02:20:32;19.10;73.10
480;DHT22;226;48.606;9.096;2022-08-19T02:23:00;19.10;72.40
480;DHT22;226;48.606;9.096;2022-08-19T02:25:30;19.10;72.30
480;DHT22;226;48.606;9.096;2022-08-19T02:27:58;19.10;73.40
480;DHT22;226;48.606;9.096;2022-08-19T02:30:27;19.20;72.10
480;DHT22;226;48.606;9.096;2022-08-19T02:32:55;19.10;73.80
480;DHT22;226;48.606;9.096;2022-08-19T02:35:23;19.20;70.00
480;DHT22;226;48.606;9.096;2022-08-19T02:37:52;19.20;69.40
480;DHT22;226;48.606;9.096;2022-08-19T02:40:39;19.30;69.10
480;DHT22;226;48.606;9.096;2022-08-19T02:43:08;19.30;67.90
480;DHT22;226;48.606;9.096;2022-08-19T02:45:38;19.40;68.10
480;DHT22;226;48.606;9.096;2022-08-19T02:48:08;19.40;67.60
480;DHT22;226;48.606;9.096;2022-08-19T02:50:48;19.40;67.20
480;DHT22;226;48.606;9.096;2022-08-19T02:53:19;19.50;66.10
480;DHT22;226;48.606;9.096;2022-08-19T02:55:50;19.50;82.40
480;DHT22;226;48.606;9.096;2022-08-19T02:58:20;19.40;65.10
480;DHT22;226;48.606;9.096;2022-08-19T03:00:53;19.40;64.70
480;DHT22;226;48.606;9.096;2022-08-19T03:03:22;19.30;65.10
480;DHT22;226;48.606;9.096;2022-08-19T03:05:51;19.30;66.30
480;DHT22;226;48.606;9.096;2022-08-19T03:08:22;19.20;66.70
480;DHT22;226;48.606;9.096;2022-08-19T03:10:53;19.20;67.10
480;DHT22;226;48.606;9.096;2022-08-19T03:13:21;19.20;67.10
480;DHT22;226;48.606;9.096;2022-08-19T03:15:50;19.30;67.40
480;DHT22;226;48.606;9.096;2022-08-19T03:18:18;19.30;80.50
480;DHT22;226;48.606;9.096;2022-08-19T03:20:51;19.40;67.70
480;DHT22;226;48.606;9.096;2022-08-19T03:23:21;19.40;67.90
480;DHT22;226;48.606;9.096;2022-08-19T03:25:53;19.50;69.00
480;DHT22;226;48.606;9.096;2022-08-19T03:28:41;19.50;68.10
480;DHT22;226;48.606;9.096;2022-08-19T03:31:19;19.50;63.80
480;DHT22;226;48.606;9.096;2022-08-19T03:34:08;19.50;61.40
480;DHT22;226;48.606;9.096;2022-08-19T03:36:39;19.50;62.50
480;DHT22;226;48.606;9.096;2022-08-19T03:39:07;19.40;60.90
480;DHT22;226;48.606;9.096;2022-08-19T03:41:39;19.50;73.60
480;DHT22;226;48.606;9.096;2022-08-19T03:44:12;19.50;60.40
480;DHT22;226;48.606;9.096;2022-08-19T03:46:45;19.40;57.80
480;DHT22;226;48.606;9.096;2022-08-19T03:49:14;19.80;59.20
480;DHT22;226;48.606;9.096;2022-08-19T03:51:45;19.40;57.00
480;DHT22;226;48.606;9.096;2022-08-19T03:54:15;19.30;56.60
480;DHT22;226;48.606;9.096;2022-08-19T03:56:47;19.30;55.50
480;DHT22;226;48.606;9.096;2022-08-19T03:59:19;19.30;57.20
480;DHT22;226;48.606;9.096;2022-08-19T04:01:47;19.40;57.30
480;DHT22;226;48.606;9.096;2022-08-19T04:04:15;19.40;65.00
480;DHT22;226;48.606;9.096;2022-08-19T04:06:45;19.40;58.60
480;DHT22;226;48.606;9.096;2022-08-19T04:09:14;19.50;57.40
480;DHT22;226;48.606;9.096;2022-08-19T04:11:46;19.40;61.90
480;DHT22;226;48.606;9.096;2022-08-19T04:14:16;19.40;55.20
480;DHT22;226;48.606;9.096;2022-08-19T04:16:45;19.40;54.70
480;DHT22;226;48.606;9.096;2022-08-19T04:19:15;19.40;53.10
480;DHT22;226;48.606;9.096;2022-08-19T04:21:45;19.40;52.90
480;DHT22;226;48.606;9.096;2022-08-19T04:24:14;19.40;52.50
480;DHT22;226;48.606;9.096;2022-08-19T04:26:43;19.30;52.70
480;DHT22;226;48.606;9.096;2022-08-19T04:29:14;19.30;54.40
480;DHT22;226;48.606;9.096;2022-08-19T04:31:43;19.30;54.60
480;DHT22;226;48.606;9.096;2022-08-19T04:34:15;19.40;53.90
480;DHT22;226;48.606;9.096;2022-08-19T04:36:44;19.30;54.60
480;DHT22;226;48.606;9.096;2022-08-19T04:39:15;19.30;54.40
480;DHT22;226;48.606;9.096;2022-08-19T04:41:44;19.30;54.70
480;DHT22;226;48.606;9.096;2022-08-19T04:44:31;19.30;52.70
480;DHT22;226;48.606;9.096;2022-08-19T04:47:02;19.30;54.20
480;DHT22;226;48.606;9.096;2022-08-19T04:49:37;19.30;53.40
480;DHT22;226;48.606;9.096;2022-08-19T04:52:05;19.30;53.80
480;DHT22;226;48.606;9.096;2022-08-19T04:54:35;19.30;53.20
480;DHT22;226;48.606;9.096;2022-08-19T04:57:07;19.20;53.50
480;DHT22;226;48.606;9.096;2022-08-19T04:59:39;19.20;54.20
480;DHT22;226;48.606;9.096;2022-08-19T05:02:08;19.30;54.40
480;DHT22;226;48.606;9.096;2022-08-19T05:04:36;19.30;54.00
480;DHT22;226;48.606;9.096;2022-08-19T05:07:06;19.30;54.20
480;DHT22;226;48.606;9.096;2022-08-19T05:09:35;19.30;53.40
480;DHT22;226;48.606;9.096;2022-08-19T05:12:23;19.40;53.70
480;DHT22;226;48.606;9.096;2022-08-19T05:14:57;19.30;52.70
480;DHT22;226;48.606;9.096;2022-08-19T05:17:26;19.40;53.40
480;DHT22;226;48.606;9.096;2022-08-19T05:20:00;19.40;51.80
480;DHT22;226;48.606;9.096;2022-08-19T05:22:47;19.40;52.60
480;DHT22;226;48.606;9.096;2022-08-19T05:25:18;19.40;52.50
480;DHT22;226;48.606;9.096;2022-08-19T05:27:47;19.40;52.80
480;DHT22;226;48.606;9.096;2022-08-19T05:30:17;19.40;51.70
480;DHT22;226;48.606;9.096;2022-08-19T05:33:06;19.40;51.60
480;DHT22;226;48.606;9.096;2022-08-19T05:35:37;19.40;51.40
480;DHT22;226;48.606;9.096;2022-08-19T05:38:06;19.40;52.20
480;DHT22;226;48.606;9.096;2022-08-19T05:40:35;19.40;52.20
480;DHT22;226;48.606;9.096;2022-08-19T05:43:05;19.40;51.70
480;DHT22;226;48.606;9.096;2022-08-19T05:45:38;19.50;52.30
480;DHT22;226;48.606;9.096;2022-08-19T05:48:07;19.50;50.80
480;DHT22;226;48.606;9.096;2022-08-19T05:50:38;19.50;51.10
480;DHT22;226;48.606;9.096;2022-08-19T05:53:07;19.50;54.30
480;DHT22;226;48.606;9.096;2022-08-19T05:55:36;19.50;51.10
480;DHT22;226;48.606;9.096;2022-08-19T05:58:06;20.40;52.00
480;DHT22;226;48.606;9.096;2022-08-19T06:00:36;19.60;55.60
480;DHT22;226;48.606;9.096;2022-08-19T06:03:05;19.60;50.60
480;DHT22;226;48.606;9.096;2022-08-19T06:05:40;19.60;51.80
480;DHT22;226;48.606;9.096;2022-08-19T06:08:17;19.50;50.00
480;DHT22;226;48.606;9.096;2022-08-19T06:10:45;19.50;53.30
480;DHT22;226;48.606;9.096;2022-08-19T06:13:13;19.50;54.00
480;DHT22;226;48.606;9.096;2022-08-19T06:15:42;19.50;50.50
480;DHT22;226;48.606;9.096;2022-08-19T06:18:14;19.60;49.10
480;DHT22;226;48.606;9.096;2022-08-19T06:20:42;19.60;50.20
480;DHT22;226;48.606;9.096;2022-08-19T06:23:25;19.60;49.90
480;DHT22;226;48.606;9.096;2022-08-19T06:25:53;19.60;49.90
480;DHT22;226;48.606;9.096;2022-08-19T06:28:21;19.60;49.30
480;DHT22;226;48.606;9.096;2022-08-19T06:30:51;19.70;49.10
480;DHT22;226;48.606;9.096;2022-08-19T06:33:19;19.60;48.70
480;DHT22;226;48.606;9.096;2022-08-19T06:35:47;19.70;49.20
480;DHT22;226;48.606;9.096;2022-08-19T06:38:15;19.70;49.00
480;DHT22;226;48.606;9.096;2022-08-19T06:40:43;19.80;48.40
480;DHT22;226;48.606;9.096;2022-08-19T06:43:11;19.80;48.30
480;DHT22;226;48.606;9.096;2022-08-19T06:45:44;19.90;48.40
480;DHT22;226;48.606;9.096;2022-08-19T06:48:14;19.80;49.00
480;DHT22;226;48.606;9.096;2022-08-19T06:50:44;19.80;47.50
480;DHT22;226;48.606;9.096;2022-08-19T06:53:12;19.80;51.60
480;DHT22;226;48.606;9.096;2022-08-19T06:55:40;19.80;50.40
480;DHT22;226;48.606;9.096;2022-08-19T06:58:08;19.80;51.70
480;DHT22;226;48.606;9.096;2022-08-19T07:00:37;19.90;51.80
480;DHT22;226;48.606;9.096;2022-08-19T07:03:05;19.80;50.10
480;DHT22;226;48.606;9.096;2022-08-19T07:05:40;19.80;54.90
480;DHT22;226;48.606;9.096;2022-08-19T07:08:12;19.70;54.20
480;DHT22;226;48.606;9.096;2022-08-19T07:10:43;19.60;54.20
480;DHT22;226;48.606;9.096;2022-08-19T07:13:11;19.60;52.20
480;DHT22;226;48.606;9.096;2022-08-19T07:15:39;19.50;57.40
480;DHT22;226;48.606;9.096;2022-08-19T07:18:08;19.60;55.40
480;DHT22;226;48.606;9.096;2022-08-19T07:20:39;19.60;56.20
480;DHT22;226;48.606;9.096;2022-08-19T07:23:08;19.60;57.90
480;DHT22;226;48.606;9.096;2022-08-19T07:25:42;19.60;55.40
480;DHT22;226;48.606;9.096;2022-08-19T07:28:19;19.70;54.10
480;DHT22;226;48.606;9.096;2022-08-19T07:30:51;19.70;52.80
480;DHT22;226;48.606;9.096;2022-08-19T07:33:19;19.80;52.50
480;DHT22;226;48.606;9.096;2022-08-19T07:35:49;19.80;50.10
480;DHT22;226;48.606;9.096;2022-08-19T07:38:17;19.70;50.90
480;DHT22;226;48.606;9.096;2022-08-19T07:40:45;19.70;51.10
480;DHT22;226;48.606;9.096;2022-08-19T07:43:13;19.70;52.20
480;DHT22;226;48.606;9.096;2022-08-19T07:45:44;19.70;53.70
480;DHT22;226;48.606;9.096;2022-08-19T07:48:13;19.70;52.20
480;DHT22;226;48.606;9.096;2022-08-19T07:50:42;19.60;52.40
480;DHT22;226;48.606;9.096;2022-08-19T07:53:11;19.60;52.80
480;DHT22;226;48.606;9.096;2022-08-19T07:55:40;19.70;52.20
480;DHT22;226;48.606;9.096;2022-08-19T07:58:12;19.60;52.50
480;DHT22;226;48.606;9.096;2022-08-19T08:00:41;19.60;53.90
480;DHT22;226;48.606;9.096;2022-08-19T08:03:10;19.60;53.70
480;DHT22;226;48.606;9.096;2022-08-19T08:05:38;19.70;53.80
480;DHT22;226;48.606;9.096;2022-08-19T08:08:24;19.70;53.30
480;DHT22;226;48.606;9.096;2022-08-19T08:11:15;19.70;51.90
480;DHT22;226;48.606;9.096;2022-08-19T08:13:47;19.80;52.30
480;DHT22;226;48.606;9.096;2022-08-19T08:16:31;19.80;52.30
480;DHT22;226;48.606;9.096;2022-08-19T08:19:00;19.80;52.10
480;DHT22;226;48.606;9.096;2022-08-19T08:21:42;19.80;52.90
480;DHT22;226;48.606;9.096;2022-08-19T08:24:12;19.70;53.10
480;DHT22;226;48.606;9.096;2022-08-19T08:26:40;19.90;53.40
480;DHT22;226;48.606;9.096;2022-08-19T08:29:12;19.90;55.00
480;DHT22;226;48.606;9.096;2022-08-19T08:31:43;19.90;56.10
480;DHT22;226;48.606;9.096;2022-08-19T08:34:13;20.00;57.20
480;DHT22;226;48.606;9.096;2022-08-19T08:36:43;19.90;54.70
480;DHT22;226;48.606;9.096;2022-08-19T08:39:14;19.80;58.10
480;DHT22;226;48.606;9.096;2022-08-19T08:41:49;19.80;60.50
480;DHT22;226;48.606;9.096;2022-08-19T08:44:23;19.60;62.70
480;DHT22;226;48.606;9.096;2022-08-19T08:46:55;19.60;66.10
480;DHT22;226;48.606;9.096;2022-08-19T08:49:30;19.50;70.70
480;DHT22;226;48.606;9.096;2022-08-19T08:52:04;19.40;68.60
480;DHT22;226;48.606;9.096;2022-08-19T08:54:38;19.30;69.10
480;DHT22;226;48.606;9.096;2022-08-19T08:57:26;19.20;75.20
480;DHT22;226;48.606;9.096;2022-08-19T09:00:10;19.10;71.90
480;DHT22;226;48.606;9.096;2022-08-19T09:02:41;19.10;76.70
480;DHT22;226;48.606;9.096;2022-08-19T09:05:11;19.10;77.40
480;DHT22;226;48.606;9.096;2022-08-19T09:07:48;19.10;80.20
480;DHT22;226;48.606;9.096;2022-08-19T09:10:24;19.10;78.50
480;DHT22;226;48.606;9.096;2022-08-19T09:13:01;19.10;76.60
480;DHT22;226;48.606;9.096;2022-08-19T09:15:41;19.20;80.70
480;DHT22;226;48.606;9.096;2022-08-19T09:18:15;19.20;82.20
480;DHT22;226;48.606;9.096;2022-08-19T09:20:46;19.30;79.00
480;DHT22;226;48.606;9.096;2022-08-19T09:23:15;19.30;76.70
480;DHT22;226;48.606;9.096;2022-08-19T09:25:44;19.30;78.60
480;DHT22;226;48.606;9.096;2022-08-19T09:28:13;19.30;77.10
480;DHT22;226;48.606;9.096;2022-08-19T09:30:52;19.40;77.60
480;DHT22;226;48.606;9.096;2022-08-19T09:33:20;19.50;77.70
480;DHT22;226;48.606;9.096;2022-08-19T09:35:49;19.50;75.80
480;DHT22;226;48.606;9.096;2022-08-19T09:38:19;19.60;75.70
480;DHT22;226;48.606;9.096;2022-08-19T09:40:49;19.60;75.40
480;DHT22;226;48.606;9.096;2022-08-19T09:43:17;19.60;75.70
480;DHT22;226;48.606;9.096;2022-08-19T09:45:59;19.50;75.70
480;DHT22;226;48.606;9.096;2022-08-19T09:48:27;19.50;77.10
480;DHT22;226;48.606;9.096;2022-08-19T09:51:03;19.40;74.00
480;DHT22;226;48.606;9.096;2022-08-19T09:53:31;19.50;75.20
480;DHT22;226;48.606;9.096;2022-08-19T09:56:01;19.60;75.30
480;DHT22;226;48.606;9.096;2022-08-19T09:58:30;19.60;75.50
480;DHT22;226;48.606;9.096;2022-08-19T10:00:58;19.60;77.80
480;DHT22;226;48.606;9.096;2022-08-19T10:03:28;19.60;76.30
480;DHT22;226;48.606;9.096;2022-08-19T10:05:59;19.50;72.80
480;DHT22;226;48.606;9.096;2022-08-19T10:08:30;19.50;77.20
480;DHT22;226;48.606;9.096;2022-08-19T10:11:01;19.50;74.80
480;DHT22;226;48.606;9.096;2022-08-19T10:13:50;19.50;75.90
480;DHT22;226;48.606;9.096;2022-08-19T10:16:20;19.50;74.50
480;DHT22;226;48.606;9.096;2022-08-19T10:18:56;19.50;77.80
480;DHT22;226;48.606;9.096;2022-08-19T10:21:28;19.50;73.40
480;DHT22;226;48.606;9.096;2022-08-19T10:24:00;19.50;91.80
480;DHT22;226;48.606;9.096;2022-08-19T10:26:31;19.60;77.80
480;DHT22;226;48.606;9.096;2022-08-19T10:29:00;19.60;77.20
480;DHT22;226;48.606;9.096;2022-08-19T10:31:30;19.60;74.90
480;DHT22;226;48.606;9.096;2022-08-19T10:34:19;19.60;78.70
480;DHT22;226;48.606;9.096;2022-08-19T10:36:54;19.70;77.90
480;DHT22;226;48.606;9.096;2022-08-19T10:39:28;19.80;80.70
480;DHT22;226;48.606;9.096;2022-08-19T10:42:04;19.80;71.60
480;DHT22;226;48.606;9.096;2022-08-19T10:44:33;19.90;77.40
480;DHT22;226;48.606;9.096;2022-08-19T10:47:02;20.00;82.90
480;DHT22;226;48.606;9.096;2022-08-19T10:49:48;20.20;83.50
480;DHT22;226;48.606;9.096;2022-08-19T10:52:38;20.30;78.50
480;DHT22;226;48.606;9.096;2022-08-19T10:55:16;20.40;81.60
480;DHT22;226;48.606;9.096;2022-08-19T10:58:04;20.50;81.60
480;DHT22;226;48.606;9.096;2022-08-19T11:00:37;20.60;82.40
480;DHT22;226;48.606;9.096;2022-08-19T11:03:05;20.70;75.70
480;DHT22;226;48.606;9.096;2022-08-19T11:05:35;20.70;75.70
480;DHT22;226;48.606;9.096;2022-08-19T11:08:06;20.90;77.40
480;DHT22;226;48.606;9.096;2022-08-19T11:10:50;20.80;78.30
480;DHT22;226;48.606;9.096;2022-08-19T11:13:22;20.80;75.60
480;DHT22;226;48.606;9.096;2022-08-19T11:15:57;20.90;77.70
480;DHT22;226;48.606;9.096;2022-08-19T11:18:32;20.90;74.90
480;DHT22;226;48.606;9.096;2022-08-19T11:21:06;21.00;74.00
480;DHT22;226;48.606;9.096;2022-08-19T11:23:34;21.00;72.80
480;DHT22;226;48.606;9.096;2022-08-19T11:26:02;21.10;74.20
480;DHT22;226;48.606;9.096;2022-08-19T11:28:32;21.20;77.00
480;DHT22;226;48.606;9.096;2022-08-19T11:31:00;21.10;74.60
480;DHT22;226;48.606;9.096;2022-08-19T11:33:30;21.10;73.80
480;DHT22;226;48.606;9.096;2022-08-19T11:35:59;21.10;74.80
480;DHT22;226;48.606;9.096;2022-08-19T11:38:27;21.00;77.40
480;DHT22;226;48.606;9.096;2022-08-19T11:40:56;21.00;79.20
480;DHT22;226;48.606;9.096;2022-08-19T11:43:24;21.10;76.70
480;DHT22;226;48.606;9.096;2022-08-19T11:45:55;21.10;75.00
480;DHT22;226;48.606;9.096;2022-08-19T11:48:24;21.10;73.50
480;DHT22;226;48.606;9.096;2022-08-19T11:50:53;21.10;82.60
480;DHT22;226;48.606;9.096;2022-08-19T11:53:23;21.20;72.60
480;DHT22;226;48.606;9.096;2022-08-19T11:55:53;21.10;72.60
480;DHT22;226;48.606;9.096;2022-08-19T11:58:23;21.20;76.70
480;DHT22;226;48.606;9.096;2022-08-19T12:00:51;21.20;72.10
480;DHT22;226;48.606;9.096;2022-08-19T12:03:21;21.10;71.90
480;DHT22;226;48.606;9.096;2022-08-19T12:05:50;21.10;78.70
480;DHT22;226;48.606;9.096;2022-08-19T12:08:18;21.20;77.30
480;DHT22;226;48.606;9.096;2022-08-19T12:10:46;21.20;77.30
480;DHT22;226;48.606;9.096;2022-08-19T12:13:15;21.10;76.10
480;DHT22;226;48.606;9.096;2022-08-19T12:15:46;21.10;77.70
480;DHT22;226;48.606;9.096;2022-08-19T12:18:15;21.10;79.10
480;DHT22;226;48.606;9.096;2022-08-19T12:20:44;21.20;77.40
480;DHT22;226;48.606;9.096;2022-08-19T12:23:13;21.20;76.50
480;DHT22;226;48.606;9.096;2022-08-19T12:25:44;21.10;77.60
480;DHT22;226;48.606;9.096;2022-08-19T12:28:16;21.20;76.30
480;DHT22;226;48.606;9.096;2022-08-19T12:30:45;21.10;77.10
480;DHT22;226;48.606;9.096;2022-08-19T12:33:13;21.20;83.20
480;DHT22;226;48.606;9.096;2022-08-19T12:35:44;21.30;78.10
480;DHT22;226;48.606;9.096;2022-08-19T12:38:13;21.30;74.90
480;DHT22;226;48.606;9.096;2022-08-19T12:40:45;21.30;75.80
480;DHT22;226;48.606;9.096;2022-08-19T12:43:13;21.20;76.20
480;DHT22;226;48.606;9.096;2022-08-19T12:45:43;21.30;78.50
480;DHT22;226;48.606;9.096;2022-08-19T12:48:13;21.30;75.60
480;DHT22;226;48.606;9.096;2022-08-19T12:51:06;21.40;73.60
480;DHT22;226;48.606;9.096;2022-08-19T12:53:35;21.40;72.70
480;DHT22;226;48.606;9.096;2022-08-19T12:56:05;21.40;72.80
480;DHT22;226;48.606;9.096;2022-08-19T12:58:38;21.40;70.80
480;DHT22;226;48.606;9.096;2022-08-19T13:01:16;21.30;71.40
480;DHT22;226;48.606;9.096;2022-08-19T13:03:49;21.40;70.40
480;DHT22;226;48.606;9.096;2022-08-19T13:06:20;21.40;74.30
480;DHT22;226;48.606;9.096;2022-08-19T13:08:49;21.40;79.30
480;DHT22;226;48.606;9.096;2022-08-19T13:11:22;21.40;72.40
480;DHT22;226;48.606;9.096;2022-08-19T13:13:52;21.30;74.30
480;DHT22;226;48.606;9.096;2022-08-19T13:16:22;21.10;75.70
480;DHT22;226;48.606;9.096;2022-08-19T13:18:50;20.90;78.50
480;DHT22;226;48.606;9.096;2022-08-19T13:21:22;20.80;80.40
480;DHT22;226;48.606;9.096;2022-08-19T13:23:51;20.70;80.40
480;DHT22;226;48.606;9.096;2022-08-19T13:26:20;20.60;81.10
480;DHT22;226;48.606;9.096;2022-08-19T13:28:48;20.60;81.50
480;DHT22;226;48.606;9.096;2022-08-19T13:31:35;20.60;80.90
480;DHT22;226;48.606;9.096;2022-08-19T13:34:27;20.50;78.70
480;DHT22;226;48.606;9.096;2022-08-19T13:36:58;20.50;81.50
480;DHT22;226;48.606;9.096;2022-08-19T13:39:26;20.50;82.80
480;DHT22;226;48.606;9.096;2022-08-19T13:41:54;20.40;81.70
480;DHT22;226;48.606;9.096;2022-08-19T13:44:22;20.40;83.70
480;DHT22;226;48.606;9.096;2022-08-19T13:46:51;20.40;84.90
480;DHT22;226;48.606;9.096;2022-08-19T13:49:20;20.50;83.20
480;DHT22;226;48.606;9.096;2022-08-19T13:51:49;20.50;82.90
480;DHT22;226;48.606;9.096;2022-08-19T13:54:19;20.50;80.00
480;DHT22;226;48.606;9.096;2022-08-19T13:56:47;20.60;81.40
480;DHT22;226;48.606;9.096;2022-08-19T13:59:15;20.50;77.80
480;DHT22;226;48.606;9.096;2022-08-19T14:01:44;20.40;75.80
480;DHT22;226;48.606;9.096;2022-08-19T14:04:12;20.40;77.60
480;DHT22;226;48.606;9.096;2022-08-19T14:06:40;20.40;76.80
480;DHT22;226;48.606;9.096;2022-08-19T14:09:08;20.40;79.50
480;DHT22;226;48.606;9.096;2022-08-19T14:11:37;20.40;85.00
480;DHT22;226;48.606;9.096;2022-08-19T14:14:05;20.30;76.80
480;DHT22;226;48.606;9.096;2022-08-19T14:16:33;20.40;80.60
480;DHT22;226;48.606;9.096;2022-08-19T14:19:01;20.40;77.90
480;DHT22;226;48.606;9.096;2022-08-19T14:21:29;20.50;92.60
480;DHT22;226;48.606;9.096;2022-08-19T14:23:57;20.50;91.60
480;DHT22;226;48.606;9.096;2022-08-19T14:26:25;20.60;91.50
480;DHT22;226;48.606;9.096;2022-08-19T14:28:55;20.40;85.90
480;DHT22;226;48.606;9.096;2022-08-19T14:31:24;20.40;81.40
480;DHT22;226;48.606;9.096;2022-08-19T14:33:56;20.20;82.00
480;DHT22;226;48.606;9.096;2022-08-19T14:36:24;20.10;81.50
480;DHT22;226;48.606;9.096;2022-08-19T14:38:53;20.10;83.40
480;DHT22;226;48.606;9.096;2022-08-19T14:41:23;20.20;83.30
480;DHT22;226;48.606;9.096;2022-08-19T14:43:52;20.20;81.00
480;DHT22;226;48.606;9.096;2022-08-19T14:46:24;19.60;92.30
480;DHT22;226;48.606;9.096;2022-08-19T14:48:55;20.50;92.00
480;DHT22;226;48.606;9.096;2022-08-19T14:51:26;20.60;90.10
480;DHT22;226;48.606;9.096;2022-08-19T14:53:54;20.70;89.30
480;DHT22;226;48.606;9.096;2022-08-19T14:56:24;20.80;82.90
480;DHT22;226;48.606;9.096;2022-08-19T14:58:53;20.80;84.70
480;DHT22;226;48.606;9.096;2022-08-19T15:01:23;20.90;84.00
480;DHT22;226;48.606;9.096;2022-08-19T15:03:52;20.80;78.60
480;DHT22;226;48.606;9.096;2022-08-19T15:06:20;20.90;79.20
480;DHT22;226;48.606;9.096;2022-08-19T15:08:49;20.80;82.30
480;DHT22;226;48.606;9.096;2022-08-19T15:11:20;20.90;78.40
480;DHT22;226;48.606;9.096;2022-08-19T15:13:49;21.00;72.30
480;DHT22;226;48.606;9.096;2022-08-19T15:16:18;21.10;72.30
480;DHT22;226;48.606;9.096;2022-08-19T15:18:50;21.20;67.10
480;DHT22;226;48.606;9.096;2022-08-19T15:21:19;21.30;73.90
480;DHT22;226;48.606;9.096;2022-08-19T15:23:54;21.40;81.50
480;DHT22;226;48.606;9.096;2022-08-19T15:26:23;21.40;75.10
480;DHT22;226;48.606;9.096;2022-08-19T15:28:53;21.50;79.00
480;DHT22;226;48.606;9.096;2022-08-19T15:31:22;21.50;83.60
480;DHT22;226;48.606;9.096;2022-08-19T15:33:56;21.70;81.30
480;DHT22;226;48.606;9.096;2022-08-19T15:36:25;21.60;60.50
480;DHT22;226;48.606;9.096;2022-08-19T15:38:53;21.70;67.80
480;DHT22;226;48.606;9.096;2022-08-19T15:41:24;20.80;76.30
480;DHT22;226;48.606;9.096;2022-08-19T15:43:55;21.70;73.50
480;DHT22;226;48.606;9.096;2022-08-19T15:46:27;21.90;83.80
480;DHT22;226;48.606;9.096;2022-08-19T15:48:57;22.20;84.30
480;DHT22;226;48.606;9.096;2022-08-19T15:51:27;22.60;92.30
480;DHT22;226;48.606;9.096;2022-08-19T16:12:54;24.10;88.00
480;DHT22;226;48.606;9.096;2022-08-19T16:17:53;24.30;89.80
480;DHT22;226;48.606;9.096;2022-08-19T16:20:24;24.20;87.30
480;DHT22;226;48.606;9.096;2022-08-19T16:22:54;24.20;88.40
480;DHT22;226;48.606;9.096;2022-08-19T16:25:24;24.20;85.70
480;DHT22;226;48.606;9.096;2022-08-19T16:27:55;24.10;88.50
480;DHT22;226;48.606;9.096;2022-08-19T16:30:34;24.00;86.20
480;DHT22;226;48.606;9.096;2022-08-19T16:33:02;24.20;89.00
480;DHT22;226;48.606;9.096;2022-08-19T16:35:32;24.10;90.20
480;DHT22;226;48.606;9.096;2022-08-19T16:38:00;24.10;87.50
480;DHT22;226;48.606;9.096;2022-08-19T16:40:28;24.00;89.20
480;DHT22;226;48.606;9.096;2022-08-19T16:42:56;23.90;87.00
480;DHT22;226;48.606;9.096;2022-08-19T16:45:24;23.90;90.30
480;DHT22;226;48.606;9.096;2022-08-19T16:47:52;23.80;90.80
480;DHT22;226;48.606;9.096;2022-08-19T16:50:21;23.80;90.50
480;DHT22;226;48.606;9.096;2022-08-19T16:53:10;23.80;90.50
480;DHT22;226;48.606;9.096;2022-08-19T16:55:38;23.70;92.20
480;DHT22;226;48.606;9.096;2022-08-19T16:58:06;23.70;90.60
480;DHT22;226;48.606;9.096;2022-08-19T17:00:35;23.60;92.30
480;DHT22;226;48.606;9.096;2022-08-19T17:03:06;23.40;92.40
480;DHT22;226;48.606;9.096;2022-08-19T17:05:41;23.30;92.20
480;DHT22;226;48.606;9.096;2022-08-19T17:08:11;23.10;93.10
480;DHT22;226;48.606;9.096;2022-08-19T17:10:39;22.90;94.60
480;DHT22;226;48.606;9.096;2022-08-19T17:13:28;22.80;95.40
480;DHT22;226;48.606;9.096;2022-08-19T17:15:56;22.70;95.20
480;DHT22;226;48.606;9.096;2022-08-19T17:18:25;22.50;94.70
480;DHT22;226;48.606;9.096;2022-08-19T17:20:58;22.40;95.90
480;DHT22;226;48.606;9.096;2022-08-19T17:23:28;22.30;95.20